Time;durP1;ratioP1;P1;durP2;ratioP2;P2;SDS_P1;SDS_P2;PMS_P1;PMS_P2;Temp;Humidity;BMP_temperature;BMP_pressure;BME280_temperature;BME280_humidity;BME280_pressure;Samples;Min_cycle;Max_cycle;Signal;HPM_P1;HPM_P2
2021/06/16 00:00:53;;;;;;;58.23;2.70;;;18.00;1.00;;;;;;5014451;28;20480;-68
2021/06/16 00:03:19;;;;;;;58.57;2.90;;;17.90;1.00;;;;;;5014180;28;20459;-68
2021/06/16 00:05:46;;;;;;;58.47;2.93;;;17.90;1.00;;;;;;5013950;28;20547;-68
2021/06/16 00:08:13;;;;;;;58.17;2.70;;;17.90;1.00;;;;;;5013868;28;20504;-68
2021/06/16 00:10:40;;;;;;;58.90;3.00;;;17.80;1.00;;;;;;5013940;28;20937;-68
2021/06/16 00:13:07;;;;;;;58.07;2.50;;;17.80;1.00;;;;;;5013983;28;20564;-68
2021/06/16 00:15:38;;;;;;;58.63;3.03;;;17.80;1.00;;;;;;5013066;28;20476;-68
2021/06/16 00:18:06;;;;;;;58.47;2.50;;;17.70;1.00;;;;;;5013472;28;20494;-68
2021/06/16 00:20:33;;;;;;;58.47;2.67;;;17.70;1.00;;;;;;5013865;28;20447;-68
2021/06/16 00:23:00;;;;;;;58.37;2.80;;;17.70;1.00;;;;;;5013779;28;21068;-68
2021/06/16 00:25:28;;;;;;;58.53;2.80;;;17.70;1.00;;;;;;5013863;28;20527;-68
2021/06/16 00:27:55;;;;;;;58.50;2.60;;;17.70;1.00;;;;;;5013472;28;20540;-68
2021/06/16 00:30:22;;;;;;;58.33;3.30;;;17.70;1.00;;;;;;5013530;28;20535;-68
2021/06/16 00:32:51;;;;;;;59.43;3.20;;;17.70;1.00;;;;;;5013410;28;20487;-69
2021/06/16 00:35:20;;;;;;;60.07;3.50;;;17.60;1.00;;;;;;5013707;28;20539;-68
2021/06/16 00:37:47;;;;;;;58.67;2.77;;;17.60;1.00;;;;;;5013366;28;20858;-68
2021/06/16 00:40:16;;;;;;;58.40;2.50;;;17.60;1.00;;;;;;5013323;28;20453;-68
2021/06/16 00:42:43;;;;;;;58.63;2.90;;;17.60;1.00;;;;;;5013390;28;20531;-68
2021/06/16 00:45:11;;;;;;;58.37;2.40;;;17.60;1.00;;;;;;5013340;28;20895;-67
2021/06/16 00:47:39;;;;;;;58.37;2.57;;;17.50;1.00;;;;;;5013087;28;20493;-68
2021/06/16 00:50:10;;;;;;;58.33;2.97;;;17.50;1.00;;;;;;5013176;28;20560;-67
2021/06/16 00:52:37;;;;;;;58.60;2.83;;;17.50;1.00;;;;;;5013215;28;20542;-69
2021/06/16 00:55:05;;;;;;;58.33;2.80;;;17.40;1.00;;;;;;5013113;28;20965;-68
2021/06/16 00:57:32;;;;;;;58.37;2.80;;;17.40;1.00;;;;;;5012960;28;20484;-68
2021/06/16 01:00:05;;;;;;;58.43;2.60;;;17.40;1.00;;;;;;5012925;28;20483;-68
2021/06/16 01:02:35;;;;;;;58.27;2.70;;;17.30;1.00;;;;;;5013155;28;20494;-67
2021/06/16 01:05:05;;;;;;;58.90;3.07;;;17.30;1.00;;;;;;5013148;28;20542;-69
2021/06/16 01:07:38;;;;;;;58.90;3.13;;;17.30;1.00;;;;;;5012984;28;20444;-68
2021/06/16 01:10:06;;;;;;;58.40;3.63;;;17.30;1.00;;;;;;5012983;28;20971;-68
2021/06/16 01:12:42;;;;;;;58.33;3.20;;;17.20;1.00;;;;;;5012848;28;20453;-69
2021/06/16 01:15:11;;;;;;;58.47;2.80;;;17.20;1.00;;;;;;5013159;28;20449;-67
2021/06/16 01:17:44;;;;;;;58.67;2.60;;;17.20;1.00;;;;;;5012667;28;21069;-68
2021/06/16 01:20:32;;;;;;;58.37;3.10;;;17.20;1.00;;;;;;5012930;28;20451;-68
2021/06/16 01:23:31;;;;;;;58.27;2.77;;;17.10;1.00;;;;;;5012752;28;20489;-67
2021/06/16 01:26:19;;;;;;;58.40;2.87;;;17.10;1.00;;;;;;5012629;28;20535;-68
2021/06/16 01:28:47;;;;;;;58.47;2.70;;;17.10;1.00;;;;;;5012490;28;20471;-68
2021/06/16 01:31:19;;;;;;;60.10;3.43;;;17.10;1.00;;;;;;5012523;28;20534;-68
2021/06/16 01:33:47;;;;;;;58.50;2.80;;;17.10;1.00;;;;;;5012654;28;20527;-68
2021/06/16 01:36:14;;;;;;;58.37;2.70;;;17.00;1.00;;;;;;5012524;28;20557;-68
2021/06/16 01:38:42;;;;;;;58.07;2.80;;;17.00;1.00;;;;;;5012330;28;20493;-68
2021/06/16 01:41:10;;;;;;;58.53;2.47;;;16.90;1.00;;;;;;5012974;28;20536;-68
2021/06/16 01:43:40;;;;;;;59.10;3.27;;;16.80;1.00;;;;;;5012476;28;21019;-68
2021/06/16 01:46:08;;;;;;;58.63;2.53;;;16.80;1.00;;;;;;5012590;28;20562;-68
2021/06/16 01:48:35;;;;;;;59.10;3.00;;;16.80;1.00;;;;;;5012256;28;20474;-68
2021/06/16 01:51:02;;;;;;;59.03;3.23;;;16.80;1.00;;;;;;5012710;28;20537;-68
2021/06/16 01:53:31;;;;;;;59.50;3.43;;;16.80;1.00;;;;;;5012351;28;20442;-68
2021/06/16 01:55:58;;;;;;;58.70;2.80;;;16.80;1.00;;;;;;5012316;28;20551;-68
2021/06/16 01:58:25;;;;;;;58.47;2.80;;;16.80;1.00;;;;;;5011860;28;20499;-68
2021/06/16 02:00:56;;;;;;;58.43;2.40;;;16.70;1.00;;;;;;5012422;28;20541;-68
2021/06/16 02:03:23;;;;;;;58.37;2.60;;;16.70;1.00;;;;;;5012225;28;20463;-68
2021/06/16 02:05:50;;;;;;;58.57;2.53;;;16.70;1.00;;;;;;5012219;28;20593;-68
2021/06/16 02:08:21;;;;;;;59.77;3.20;;;16.70;1.00;;;;;;5011789;28;20462;-68
2021/06/16 02:10:50;;;;;;;59.20;3.10;;;16.70;1.00;;;;;;5011964;28;20825;-68
2021/06/16 02:13:25;;;;;;;58.47;2.93;;;16.70;1.00;;;;;;5012061;28;20537;-68
2021/06/16 02:15:57;;;;;;;58.57;2.90;;;16.70;1.00;;;;;;5012431;28;20538;-68
2021/06/16 02:18:30;;;;;;;58.70;2.90;;;16.70;1.00;;;;;;5011912;28;20490;-68
2021/06/16 02:20:57;;;;;;;59.37;4.30;;;16.70;1.00;;;;;;5011964;28;20477;-68
2021/06/16 02:23:24;;;;;;;58.50;2.90;;;16.70;1.00;;;;;;5011843;28;20548;-68
2021/06/16 02:25:51;;;;;;;58.90;2.70;;;16.60;1.00;;;;;;5012104;28;20818;-68
2021/06/16 02:28:18;;;;;;;59.00;2.70;;;16.60;1.00;;;;;;5011658;28;20471;-68
2021/06/16 02:30:46;;;;;;;58.50;2.70;;;16.60;1.00;;;;;;5012019;28;20543;-68
2021/06/16 02:33:14;;;;;;;58.70;2.70;;;16.60;1.00;;;;;;5011967;28;20541;-68
2021/06/16 02:35:41;;;;;;;57.77;2.43;;;16.60;1.00;;;;;;5011697;28;20500;-68
2021/06/16 02:38:12;;;;;;;58.70;3.47;;;16.60;1.00;;;;;;5012943;28;20486;-68
2021/06/16 02:40:42;;;;;;;58.50;3.30;;;16.50;1.00;;;;;;5015803;28;20482;-69
2021/06/16 02:43:10;;;;;;;58.40;2.80;;;16.50;1.00;;;;;;5015940;28;20483;-68
2021/06/16 02:45:38;;;;;;;58.67;2.90;;;16.50;1.00;;;;;;5015689;28;20453;-68
2021/06/16 02:48:07;;;;;;;58.60;2.67;;;16.50;1.00;;;;;;5015368;28;20470;-69
2021/06/16 02:50:37;;;;;;;58.23;2.50;;;16.50;1.00;;;;;;5015690;28;20852;-68
2021/06/16 02:53:15;;;;;;;58.33;2.70;;;16.40;1.00;;;;;;5015725;28;20481;-68
2021/06/16 02:55:43;;;;;;;58.63;3.10;;;16.40;1.00;;;;;;5015713;28;20527;-68
2021/06/16 02:58:11;;;;;;;58.53;2.70;;;16.30;1.00;;;;;;5015163;28;20514;-68
2021/06/16 03:00:38;;;;;;;58.17;2.60;;;16.30;1.00;;;;;;5015325;28;20546;-68
2021/06/16 03:03:07;;;;;;;58.97;3.60;;;16.30;1.00;;;;;;5015423;28;20452;-68
2021/06/16 03:05:37;;;;;;;58.47;2.80;;;16.20;1.00;;;;;;5015447;28;20996;-68
2021/06/16 03:08:06;;;;;;;59.00;3.07;;;16.20;1.00;;;;;;5015288;28;20553;-68
2021/06/16 03:10:35;;;;;;;58.63;2.97;;;16.10;1.00;;;;;;5015247;28;20816;-68
2021/06/16 03:13:04;;;;;;;58.57;3.00;;;16.10;1.00;;;;;;5015398;28;20450;-68
2021/06/16 03:15:31;;;;;;;58.07;2.70;;;16.10;1.00;;;;;;5015109;28;20446;-68
2021/06/16 03:17:59;;;;;;;58.87;3.10;;;16.10;1.00;;;;;;5014827;28;20492;-68
2021/06/16 03:20:29;;;;;;;58.83;3.47;;;16.00;1.00;;;;;;5015137;28;20541;-68
2021/06/16 03:22:59;;;;;;;58.70;3.00;;;16.00;1.00;;;;;;5015251;28;20996;-68
2021/06/16 03:25:26;;;;;;;58.03;2.60;;;16.00;1.00;;;;;;5015137;28;20536;-68
2021/06/16 03:27:54;;;;;;;58.37;2.50;;;16.00;1.00;;;;;;5014721;28;20446;-68
2021/06/16 03:30:22;;;;;;;58.50;2.50;;;15.90;1.00;;;;;;5015266;28;20478;-68
2021/06/16 03:32:51;;;;;;;58.23;2.80;;;15.90;1.00;;;;;;5015165;28;20481;-68
2021/06/16 03:35:17;;;;;;;58.17;2.50;;;15.80;1.00;;;;;;5015209;28;20533;-68
2021/06/16 03:37:45;;;;;;;58.27;2.60;;;15.80;1.00;;;;;;5014518;28;20569;-68
2021/06/16 03:40:16;;;;;;;57.97;2.70;;;15.80;1.00;;;;;;5014820;28;20461;-69
2021/06/16 03:42:44;;;;;;;58.70;2.77;;;15.80;1.00;;;;;;5015125;28;20533;-68
2021/06/16 03:45:12;;;;;;;58.40;2.70;;;15.80;1.00;;;;;;5014836;28;20450;-69
2021/06/16 03:47:42;;;;;;;58.60;2.70;;;15.80;1.00;;;;;;5014681;28;20453;-68
2021/06/16 03:50:11;;;;;;;58.97;3.53;;;15.80;1.00;;;;;;5013481;28;20478;-68
2021/06/16 03:52:39;;;;;;;58.43;2.93;;;15.80;1.00;;;;;;5014699;28;20457;-68
2021/06/16 03:55:07;;;;;;;58.47;2.90;;;15.80;1.00;;;;;;5014589;28;20454;-69
2021/06/16 03:57:36;;;;;;;58.70;2.80;;;15.80;1.00;;;;;;5014174;28;20447;-68
2021/06/16 04:00:05;;;;;;;58.07;2.53;;;15.90;1.00;;;;;;5014551;28;20482;-68
2021/06/16 04:02:32;;;;;;;58.90;3.10;;;15.90;1.00;;;;;;5014611;28;20453;-68
2021/06/16 04:05:02;;;;;;;58.70;2.60;;;15.90;1.00;;;;;;5014750;28;20446;-68
2021/06/16 04:07:30;;;;;;;59.00;3.87;;;15.90;1.00;;;;;;5014233;28;20457;-68
2021/06/16 04:09:57;;;;;;;58.40;2.50;;;16.00;1.00;;;;;;5014500;28;20573;-68
2021/06/16 04:12:25;;;;;;;60.10;3.10;;;16.00;1.00;;;;;;5014229;28;20947;-68
2021/06/16 04:14:53;;;;;;;57.80;2.57;;;16.00;1.00;;;;;;5014422;28;21018;-68
2021/06/16 04:17:22;;;;;;;58.70;2.90;;;16.00;1.00;;;;;;5014173;28;20477;-69
2021/06/16 04:19:50;;;;;;;58.57;2.47;;;16.00;1.00;;;;;;5013835;28;20489;-68
2021/06/16 04:22:18;;;;;;;58.50;2.43;;;16.10;1.00;;;;;;5014095;28;20936;-68
2021/06/16 04:24:45;;;;;;;58.27;2.73;;;16.10;1.00;;;;;;5014214;28;20458;-68
2021/06/16 04:27:13;;;;;;;58.07;2.80;;;16.10;1.00;;;;;;5013787;28;20549;-68
2021/06/16 04:29:41;;;;;;;58.57;2.90;;;16.20;1.00;;;;;;5013853;28;20463;-68
2021/06/16 04:32:10;;;;;;;58.37;2.63;;;16.20;1.00;;;;;;5013861;28;20538;-68
2021/06/16 04:34:37;;;;;;;57.57;2.60;;;16.30;1.00;;;;;;5013796;28;20533;-68
2021/06/16 04:37:04;;;;;;;58.80;3.10;;;16.30;1.00;;;;;;5013804;28;20479;-68
2021/06/16 04:39:31;;;;;;;58.37;2.70;;;16.40;1.00;;;;;;5013479;28;20489;-68
2021/06/16 04:41:58;;;;;;;58.07;2.60;;;16.40;1.00;;;;;;5013828;28;20457;-68
2021/06/16 04:44:25;;;;;;;58.63;2.77;;;16.50;1.00;;;;;;5013644;28;20539;-69
2021/06/16 04:46:52;;;;;;;58.60;2.70;;;16.50;1.00;;;;;;5013367;28;20533;-69
2021/06/16 04:49:21;;;;;;;58.50;2.50;;;16.60;1.00;;;;;;5013507;28;20468;-69
2021/06/16 04:51:48;;;;;;;58.07;2.80;;;16.70;1.00;;;;;;5013671;28;20895;-69
2021/06/16 04:54:15;;;;;;;59.97;3.00;;;16.70;1.00;;;;;;5014055;28;20483;-69
2021/06/16 04:56:42;;;;;;;58.47;2.70;;;16.70;1.00;;;;;;5013064;28;20535;-68
2021/06/16 04:59:10;;;;;;;58.37;3.00;;;16.80;1.00;;;;;;5012779;28;20578;-69
2021/06/16 05:01:37;;;;;;;57.97;2.40;;;16.80;1.00;;;;;;5012094;28;20451;-69
2021/06/16 05:04:04;;;;;;;58.07;2.50;;;16.80;1.00;;;;;;5011708;28;20442;-69
2021/06/16 05:06:33;;;;;;;58.37;2.80;;;16.90;1.00;;;;;;5013084;28;20482;-68
2021/06/16 05:09:00;;;;;;;58.67;2.90;;;16.90;1.00;;;;;;5012804;28;20547;-69
2021/06/16 05:11:27;;;;;;;57.60;2.47;;;16.90;1.00;;;;;;5013034;28;20509;-69
2021/06/16 05:13:54;;;;;;;58.90;2.90;;;16.90;1.00;;;;;;5012928;28;20449;-69
2021/06/16 05:16:21;;;;;;;58.40;2.50;;;17.00;1.00;;;;;;5012662;28;20558;-68
2021/06/16 05:18:48;;;;;;;57.77;2.50;;;17.00;1.00;;;;;;5012821;28;20555;-68
2021/06/16 05:21:15;;;;;;;58.90;3.33;;;17.10;1.00;;;;;;5012751;28;20461;-68
2021/06/16 05:23:43;;;;;;;58.57;2.70;;;17.10;1.00;;;;;;5012873;28;20483;-68
2021/06/16 05:26:11;;;;;;;58.03;2.60;;;17.10;1.00;;;;;;5012898;28;20462;-68
2021/06/16 05:28:37;;;;;;;58.53;2.63;;;17.20;1.00;;;;;;5012231;28;20468;-68
2021/06/16 05:31:04;;;;;;;58.70;2.93;;;17.20;1.00;;;;;;5012888;28;20483;-69
2021/06/16 05:33:32;;;;;;;58.40;2.70;;;17.30;1.00;;;;;;5012682;28;20554;-68
2021/06/16 05:35:59;;;;;;;58.53;2.67;;;17.40;1.00;;;;;;5012476;28;20534;-71
2021/06/16 05:38:26;;;;;;;57.70;2.60;;;17.50;1.00;;;;;;5012182;28;20587;-70
2021/06/16 05:40:54;;;;;;;58.80;2.90;;;17.50;1.00;;;;;;5012573;28;20875;-69
2021/06/16 05:43:21;;;;;;;57.97;2.30;;;17.60;1.00;;;;;;5012721;28;20454;-69
2021/06/16 05:45:47;;;;;;;58.00;3.30;;;17.60;1.00;;;;;;5012663;28;20444;-69
2021/06/16 05:48:14;;;;;;;58.40;2.67;;;17.60;1.00;;;;;;5012043;28;21071;-69
2021/06/16 05:50:41;;;;;;;58.50;2.70;;;17.70;1.00;;;;;;5012408;28;20451;-68
2021/06/16 05:53:10;;;;;;;58.27;2.80;;;17.80;1.00;;;;;;5012533;28;20542;-69
2021/06/16 05:55:36;;;;;;;57.97;2.37;;;17.90;1.00;;;;;;5012269;28;20455;-69
2021/06/16 05:58:05;;;;;;;58.47;3.07;;;18.00;1.00;;;;;;5011889;28;20833;-69
2021/06/16 06:00:32;;;;;;;60.10;2.80;;;18.10;1.00;;;;;;5011896;28;20560;-69
2021/06/16 06:02:59;;;;;;;58.20;2.60;;;18.20;1.00;;;;;;5009452;28;20535;-69
2021/06/16 06:05:26;;;;;;;58.27;2.40;;;18.30;1.00;;;;;;5010875;28;20543;-69
2021/06/16 06:07:53;;;;;;;58.23;2.50;;;18.40;1.00;;;;;;5010505;28;20453;-70
2021/06/16 06:10:20;;;;;;;57.97;2.60;;;18.40;1.00;;;;;;5011318;28;20540;-69
2021/06/16 06:12:47;;;;;;;58.07;2.60;;;18.50;1.00;;;;;;5010873;28;20543;-70
2021/06/16 06:15:16;;;;;;;58.57;2.90;;;18.50;1.00;;;;;;5012002;28;20453;-69
2021/06/16 06:17:42;;;;;;;58.13;2.63;;;18.60;1.00;;;;;;5011155;28;20540;-69
2021/06/16 06:20:11;;;;;;;58.23;2.50;;;18.60;1.00;;;;;;5012000;28;20926;-70
2021/06/16 06:22:37;;;;;;;58.07;2.50;;;18.80;1.00;;;;;;5011614;28;20536;-70
2021/06/16 06:25:06;;;;;;;58.20;2.40;;;18.90;1.00;;;;;;5011774;28;20888;-70
2021/06/16 06:27:32;;;;;;;57.97;2.50;;;19.00;1.00;;;;;;5011222;28;20539;-67
2021/06/16 06:29:59;;;;;;;58.27;2.77;;;19.20;1.00;;;;;;5011980;28;20504;-68
2021/06/16 06:32:27;;;;;;;58.03;2.70;;;19.30;1.00;;;;;;5010910;28;20479;-68
2021/06/16 06:34:54;;;;;;;57.90;2.30;;;19.40;1.00;;;;;;5011008;28;21003;-68
2021/06/16 06:37:21;;;;;;;58.27;2.40;;;19.50;1.00;;;;;;5011245;28;20482;-69
2021/06/16 06:39:49;;;;;;;58.07;2.60;;;19.60;1.00;;;;;;5011824;28;20486;-68
2021/06/16 06:42:16;;;;;;;57.87;2.40;;;19.70;1.00;;;;;;5011744;28;20456;-68
2021/06/16 06:44:43;;;;;;;58.30;2.77;;;19.80;1.00;;;;;;5011489;28;20516;-68
2021/06/16 06:47:10;;;;;;;58.07;2.70;;;19.90;1.00;;;;;;5011159;28;20533;-68
2021/06/16 06:49:38;;;;;;;57.63;2.90;;;20.00;1.00;;;;;;5011645;28;20557;-68
2021/06/16 06:52:06;;;;;;;58.00;2.63;;;20.10;1.00;;;;;;5010993;28;20807;-68
2021/06/16 06:54:35;;;;;;;58.67;2.90;;;20.20;1.00;;;;;;5011687;28;20528;-68
2021/06/16 06:57:03;;;;;;;58.23;2.70;;;20.30;1.00;;;;;;5010830;28;20549;-68
2021/06/16 06:59:30;;;;;;;58.20;2.40;;;20.40;1.00;;;;;;5011388;28;20580;-68
2021/06/16 07:01:58;;;;;;;58.03;2.40;;;20.60;1.00;;;;;;5011596;28;20458;-69
2021/06/16 07:04:26;;;;;;;58.37;2.50;;;20.70;1.00;;;;;;5011174;28;20543;-68
2021/06/16 07:06:54;;;;;;;59.00;3.13;;;20.80;1.00;;;;;;5010998;28;20448;-68
2021/06/16 07:09:21;;;;;;;58.33;2.50;;;20.90;1.00;;;;;;5010986;28;20494;-68
2021/06/16 07:11:48;;;;;;;58.57;2.47;;;21.00;1.00;;;;;;5010899;28;20632;-69
2021/06/16 07:14:15;;;;;;;58.43;2.80;;;21.20;1.00;;;;;;5010849;28;20452;-68
2021/06/16 07:16:42;;;;;;;57.87;2.37;;;21.30;1.00;;;;;;5011125;28;20534;-68
2021/06/16 07:19:09;;;;;;;57.93;2.60;;;21.50;1.00;;;;;;5009323;28;20489;-68
2021/06/16 07:21:36;;;;;;;58.23;2.60;;;21.60;1.00;;;;;;5009905;28;20556;-68
2021/06/16 07:24:05;;;;;;;58.47;2.70;;;21.70;1.00;;;;;;5010365;28;20898;-69
2021/06/16 07:26:32;;;;;;;57.87;2.47;;;21.90;1.00;;;;;;5013135;28;21087;-68
2021/06/16 07:28:59;;;;;;;59.93;2.87;;;22.00;1.00;;;;;;5013313;28;20564;-68
2021/06/16 07:31:26;;;;;;;58.80;2.80;;;22.10;1.00;;;;;;5013195;28;20546;-68
2021/06/16 07:33:53;;;;;;;58.23;2.40;;;22.20;1.00;;;;;;5013792;28;20498;-69
2021/06/16 07:36:19;;;;;;;58.03;2.40;;;22.40;1.00;;;;;;5014661;28;20453;-68
2021/06/16 07:38:46;;;;;;;58.17;2.47;;;22.50;1.00;;;;;;5014536;28;20511;-68
2021/06/16 07:41:14;;;;;;;57.97;2.60;;;22.60;1.00;;;;;;5014761;28;20528;-69
2021/06/16 07:43:41;;;;;;;58.07;2.40;;;22.70;1.00;;;;;;5014554;28;20446;-69
2021/06/16 07:46:09;;;;;;;58.20;2.37;;;22.90;1.00;;;;;;5014570;28;20890;-68
2021/06/16 07:48:36;;;;;;;57.93;2.20;;;23.10;1.00;;;;;;5014659;28;20469;-68
2021/06/16 07:51:03;;;;;;;59.00;2.90;;;23.30;1.00;;;;;;5014377;28;20457;-68
2021/06/16 07:53:30;;;;;;;58.17;2.70;;;23.40;1.00;;;;;;5014549;28;20449;-69
2021/06/16 07:55:57;;;;;;;58.40;2.60;;;23.50;1.00;;;;;;5014244;28;20485;-67
2021/06/16 07:58:25;;;;;;;58.13;2.60;;;23.70;1.00;;;;;;5014119;28;20479;-69
2021/06/16 08:00:52;;;;;;;57.87;2.50;;;23.80;1.00;;;;;;5014088;28;20842;-68
2021/06/16 08:03:19;;;;;;;58.20;2.60;;;23.90;1.00;;;;;;5014489;28;20481;-68
2021/06/16 08:05:47;;;;;;;57.97;2.83;;;24.00;1.00;;;;;;5014212;28;20482;-68
2021/06/16 08:08:14;;;;;;;57.67;2.40;;;24.20;1.00;;;;;;5014286;28;20884;-69
2021/06/16 08:10:41;;;;;;;58.17;2.50;;;24.30;1.00;;;;;;5012430;28;20531;-68
2021/06/16 08:13:08;;;;;;;57.90;2.10;;;24.50;1.00;;;;;;5013873;28;20533;-68
2021/06/16 08:15:36;;;;;;;57.87;2.27;;;24.70;1.00;;;;;;5013847;28;20473;-68
2021/06/16 08:18:03;;;;;;;58.17;2.50;;;24.80;1.00;;;;;;5013725;28;20495;-69
2021/06/16 08:20:30;;;;;;;58.00;2.50;;;24.90;1.00;;;;;;5013613;28;20578;-69
2021/06/16 08:22:57;;;;;;;58.10;2.37;;;25.10;1.00;;;;;;5013842;28;20496;-68
2021/06/16 08:25:24;;;;;;;58.17;2.50;;;25.10;1.00;;;;;;5013736;28;20490;-68
2021/06/16 08:27:51;;;;;;;58.33;2.73;;;25.30;1.00;;;;;;5013000;28;20531;-69
2021/06/16 08:30:19;;;;;;;58.00;2.30;;;25.40;1.00;;;;;;5013800;28;20476;-68
2021/06/16 08:32:47;;;;;;;57.90;2.20;;;25.50;1.00;;;;;;5013255;28;20467;-68
2021/06/16 08:35:14;;;;;;;58.00;2.37;;;25.60;1.00;;;;;;5013297;28;20450;-68
2021/06/16 08:37:42;;;;;;;58.00;2.37;;;25.80;1.00;;;;;;5012983;28;21002;-68
2021/06/16 08:40:10;;;;;;;58.17;2.60;;;25.90;1.00;;;;;;5013349;28;21073;-68
2021/06/16 08:42:37;;;;;;;57.87;2.30;;;25.90;1.00;;;;;;5013192;28;20537;-69
2021/06/16 08:45:05;;;;;;;58.00;2.50;;;26.10;1.00;;;;;;5013480;28;20454;-68
2021/06/16 08:47:34;;;;;;;58.03;2.30;;;26.20;1.00;;;;;;5013061;28;21027;-67
2021/06/16 08:50:05;;;;;;;57.90;2.20;;;26.40;1.00;;;;;;5013395;28;20487;-69
2021/06/16 08:52:32;;;;;;;58.10;2.73;;;26.50;1.00;;;;;;5013096;28;20965;-68
2021/06/16 08:55:02;;;;;;;57.83;2.10;;;26.60;1.00;;;;;;5013203;28;20538;-68
2021/06/16 08:57:29;;;;;;;58.20;2.97;;;26.60;1.00;;;;;;5013073;28;20450;-68
2021/06/16 08:59:55;;;;;;;57.90;2.30;;;26.70;1.00;;;;;;5012946;28;20497;-67
2021/06/16 09:02:23;;;;;;;57.87;2.50;;;26.80;1.00;;;;;;5012822;28;20484;-69
2021/06/16 09:04:51;;;;;;;57.63;2.20;;;26.90;1.00;;;;;;5013088;28;20530;-70
2021/06/16 09:07:21;;;;;;;57.90;2.70;;;27.00;1.00;;;;;;5012436;28;20471;-69
2021/06/16 09:09:49;;;;;;;57.63;2.20;;;27.20;1.00;;;;;;5012589;28;20554;-69
2021/06/16 09:12:30;;;;;;;57.97;2.10;;;27.30;1.00;;;;;;5012893;28;20459;-70
2021/06/16 09:14:57;;;;;;;58.20;2.20;;;27.60;1.00;;;;;;4996631;28;20446;-70
2021/06/16 09:17:25;;;;;;;57.73;2.13;;;27.80;1.00;;;;;;5012670;28;20452;-71
2021/06/16 09:19:54;;;;;;;57.77;2.10;;;28.00;1.00;;;;;;5012483;28;20484;-70
2021/06/16 09:22:29;;;;;;;58.07;2.30;;;28.20;1.00;;;;;;5012760;28;20545;-70
2021/06/16 09:24:57;;;;;;;57.97;2.13;;;28.30;1.00;;;;;;5012853;28;20453;-70
2021/06/16 09:27:44;;;;;;;58.20;2.50;;;28.40;1.00;;;;;;5012584;28;20454;-70
2021/06/16 09:30:40;;;;;;;58.07;2.70;;;28.60;1.00;;;;;;5012543;28;20446;-69
2021/06/16 09:33:10;;;;;;;57.63;2.10;;;28.70;1.00;;;;;;5012578;28;20482;-70
2021/06/16 09:35:39;;;;;;;57.73;2.17;;;28.80;1.00;;;;;;5012714;28;20446;-69
2021/06/16 09:38:09;;;;;;;58.20;2.70;;;29.00;1.00;;;;;;5012189;28;20470;-70
2021/06/16 09:40:38;;;;;;;57.80;2.43;;;29.10;1.00;;;;;;5012271;28;20577;-70
2021/06/16 09:43:06;;;;;;;58.63;3.07;;;29.10;1.00;;;;;;5012471;28;20453;-70
2021/06/16 09:45:34;;;;;;;58.90;2.53;;;29.20;1.00;;;;;;5012175;28;20536;-70
2021/06/16 09:48:19;;;;;;;57.73;2.50;;;29.40;1.00;;;;;;5012411;28;20482;-70
2021/06/16 09:50:46;;;;;;;57.60;2.13;;;29.60;1.00;;;;;;5012265;28;20450;-70
2021/06/16 09:53:15;;;;;;;58.43;3.00;;;29.80;1.00;;;;;;5011808;28;20541;-70
2021/06/16 09:55:42;;;;;;;57.63;2.20;;;30.00;1.00;;;;;;5012202;28;20500;-71
2021/06/16 09:58:11;;;;;;;57.90;2.30;;;30.20;1.00;;;;;;5012018;28;20552;-70
2021/06/16 10:00:39;;;;;;;57.97;2.50;;;30.20;1.00;;;;;;5012052;28;20904;-70
2021/06/16 10:03:11;;;;;;;58.40;3.03;;;30.40;1.00;;;;;;5012029;28;20997;-70
2021/06/16 10:06:03;;;;;;;57.67;2.10;;;30.50;1.00;;;;;;5011816;28;20537;-70
2021/06/16 10:08:32;;;;;;;57.67;2.30;;;30.70;1.00;;;;;;5012044;28;20927;-70
2021/06/16 10:11:00;;;;;;;57.73;2.50;;;30.90;1.00;;;;;;5011841;28;20541;-71
2021/06/16 10:13:27;;;;;;;57.67;2.17;;;31.00;1.00;;;;;;5011883;28;20490;-70
2021/06/16 10:15:55;;;;;;;57.43;2.17;;;31.20;1.00;;;;;;5011828;28;20533;-70
2021/06/16 10:18:22;;;;;;;57.67;2.10;;;31.50;1.00;;;;;;5011436;28;20472;-70
2021/06/16 10:20:50;;;;;;;57.67;2.83;;;31.70;1.00;;;;;;5011960;28;20483;-70
2021/06/16 10:23:17;;;;;;;57.47;2.07;;;32.10;1.00;;;;;;5012020;28;20482;-70
2021/06/16 10:25:45;;;;;;;57.57;2.50;;;33.10;1.00;;;;;;5011941;28;20484;-71
2021/06/16 10:28:16;;;;;;;57.17;2.20;;;34.20;1.00;;;;;;5011711;28;20466;-70
2021/06/16 10:30:44;;;;;;;57.17;2.00;;;35.30;1.00;;;;;;5011624;28;20446;-70
2021/06/16 10:33:37;;;;;;;57.30;2.00;;;36.00;1.00;;;;;;5011861;28;20478;-70
2021/06/16 10:36:12;;;;;;;57.07;2.20;;;36.90;1.00;;;;;;5001942;28;20567;-71
2021/06/16 10:38:40;;;;;;;57.63;2.40;;;37.30;1.00;;;;;;5006692;28;20540;-68
2021/06/16 10:41:09;;;;;;;57.27;2.53;;;37.80;1.00;;;;;;5001432;28;20477;-70
2021/06/16 10:43:36;;;;;;;58.47;2.40;;;38.30;1.00;;;;;;5011906;28;20453;-70
2021/06/16 10:46:16;;;;;;;57.60;2.40;;;38.70;1.00;;;;;;5011739;28;20457;-71
2021/06/16 10:48:58;;;;;;;58.90;3.20;;;39.30;1.00;;;;;;5011743;28;20835;-71
2021/06/16 10:51:41;;;;;;;57.40;2.63;;;40.10;1.00;;;;;;5011561;28;20486;-70
2021/06/16 10:54:16;;;;;;;57.10;2.70;;;40.80;1.00;;;;;;5011858;28;20454;-68
2021/06/16 10:56:46;;;;;;;57.07;2.20;;;41.10;1.00;;;;;;5011252;28;20464;-69
2021/06/16 10:59:13;;;;;;;57.80;2.27;;;41.70;1.00;;;;;;5012610;28;20576;-68
2021/06/16 11:01:47;;;;;;;57.17;2.33;;;42.10;1.00;;;;;;5015344;28;20486;-68
2021/06/16 11:04:26;;;;;;;56.90;2.53;;;42.20;1.00;;;;;;5015036;28;20832;-69
2021/06/16 11:06:53;;;;;;;57.37;2.77;;;42.10;1.00;;;;;;5015633;28;20450;-69
2021/06/16 11:09:47;;;;;;;56.70;2.37;;;41.90;1.00;;;;;;5015145;28;20508;-68
2021/06/16 11:12:15;;;;;;;56.90;2.27;;;42.00;1.00;;;;;;5015196;28;20454;-68
2021/06/16 11:14:48;;;;;;;56.97;2.53;;;42.20;1.00;;;;;;5015154;28;20464;-68
2021/06/16 11:17:42;;;;;;;56.30;2.20;;;42.30;1.00;;;;;;5015017;28;20979;-69
2021/06/16 11:20:11;;;;;;;57.10;2.30;;;42.40;1.00;;;;;;5012375;28;20928;-70
2021/06/16 11:22:40;;;;;;;56.87;2.30;;;42.30;1.00;;;;;;5014883;28;20450;-69
2021/06/16 11:25:27;;;;;;;56.87;2.20;;;42.20;1.00;;;;;;5014767;28;20450;-69
2021/06/16 11:28:10;;;;;;;56.47;2.10;;;42.20;1.00;;;;;;5013937;28;20811;-69
2021/06/16 11:30:40;;;;;;;57.00;2.27;;;42.10;1.00;;;;;;5014738;28;20457;-69
2021/06/16 11:33:32;;;;;;;56.73;2.10;;;42.40;1.00;;;;;;5015167;28;20536;-69
2021/06/16 11:36:02;;;;;;;58.10;3.60;;;42.90;1.00;;;;;;5014705;28;20453;-68
2021/06/16 11:38:32;;;;;;;56.47;2.13;;;43.00;1.00;;;;;;5014757;28;20484;-69
2021/06/16 11:41:01;;;;;;;55.47;1.80;;;43.50;1.00;;;;;;5014785;28;20482;-69
2021/06/16 11:43:37;;;;;;;57.53;2.20;;;43.80;1.00;;;;;;5014619;28;20453;-69
2021/06/16 11:46:06;;;;;;;56.50;2.00;;;43.70;1.00;;;;;;5014511;28;20458;-69
2021/06/16 11:48:34;;;;;;;56.33;2.10;;;43.80;1.00;;;;;;5014384;28;20971;-69
2021/06/16 11:51:01;;;;;;;56.50;2.17;;;43.50;1.00;;;;;;5014225;28;20504;-69
2021/06/16 11:53:32;;;;;;;56.90;2.70;;;43.60;1.00;;;;;;5014359;28;20488;-69
2021/06/16 11:56:02;;;;;;;56.47;2.13;;;43.60;1.00;;;;;;5014103;28;20485;-69
2021/06/16 11:58:32;;;;;;;56.80;2.27;;;43.50;1.00;;;;;;5013951;28;20829;-69
2021/06/16 12:01:14;;;;;;;56.80;2.00;;;43.50;1.00;;;;;;5014248;28;20484;-69
2021/06/16 12:03:43;;;;;;;56.50;2.40;;;43.40;1.00;;;;;;5014297;28;20490;-70
2021/06/16 12:06:12;;;;;;;56.90;2.60;;;43.50;1.00;;;;;;5014005;28;20454;-69
2021/06/16 12:08:40;;;;;;;56.67;2.10;;;43.50;1.00;;;;;;5013919;28;20894;-69
2021/06/16 12:11:18;;;;;;;56.80;2.30;;;43.50;1.00;;;;;;5013166;28;20501;-69
2021/06/16 12:14:00;;;;;;;56.37;2.60;;;43.50;1.00;;;;;;5001145;28;20494;-70
2021/06/16 12:16:30;;;;;;;56.80;1.90;;;43.70;1.00;;;;;;4994172;28;20486;-70
2021/06/16 12:19:12;;;;;;;56.13;1.90;;;43.70;1.00;;;;;;4993958;28;20513;-68
2021/06/16 12:21:39;;;;;;;56.80;2.60;;;43.60;1.00;;;;;;4993652;28;20865;-69
2021/06/16 12:24:20;;;;;;;56.80;2.40;;;43.30;1.00;;;;;;4992505;28;20526;-69
2021/06/16 12:27:08;;;;;;;56.97;2.17;;;42.70;1.00;;;;;;4992511;28;20458;-69
2021/06/16 12:29:37;;;;;;;56.87;2.40;;;42.10;1.00;;;;;;4992272;28;20475;-69
2021/06/16 12:32:08;;;;;;;56.90;2.20;;;42.10;1.00;;;;;;4992365;28;20451;-69
2021/06/16 12:37:17;;;;;;;57.00;2.27;;;42.60;1.00;;;;;;4988024;28;20997;-70
2021/06/16 12:39:54;;;;;;;56.43;2.40;;;42.60;1.00;;;;;;5030392;28;20496;-69
2021/06/16 12:42:21;;;;;;;57.00;2.60;;;43.10;1.00;;;;;;5033265;28;20495;-69
2021/06/16 12:44:48;;;;;;;55.40;2.00;;;43.20;1.00;;;;;;5033283;28;20874;-68
2021/06/16 12:47:25;;;;;;;56.30;1.90;;;43.30;1.00;;;;;;5033003;28;20453;-68
2021/06/16 12:49:53;;;;;;;56.10;2.53;;;43.30;1.00;;;;;;5033107;28;20472;-68
2021/06/16 12:52:31;;;;;;;55.90;2.50;;;42.80;1.00;;;;;;5032910;28;20445;-68
2021/06/16 12:55:09;;;;;;;56.80;2.40;;;42.10;1.00;;;;;;5033166;28;20444;-69
2021/06/16 12:57:48;;;;;;;56.67;2.40;;;41.40;1.00;;;;;;5033155;28;20453;-69
2021/06/16 13:00:17;;;;;;;57.10;2.60;;;40.70;1.00;;;;;;5032830;28;20854;-69
2021/06/16 13:02:45;;;;;;;57.20;2.60;;;40.40;1.00;;;;;;5032602;28;20572;-68